sensor_id;sensor_type;location;lat;lon;timestamp;temperature;humidity
24374;DHT22;12498;50.880;12.096;2023-09-19T00:01:28;17.40;99.90
24374;DHT22;12498;50.880;12.096;2023-09-19T00:03:56;17.40;99.90
24374;DHT22;12498;50.880;12.096;2023-09-19T00:06:22;17.40;99.90
24374;DHT22;12498;50.880;12.096;2023-09-19T00:08:51;17.50;99.90
24374;DHT22;12498;50.880;12.096;2023-09-19T00:11:17;17.40;99.90
24374;DHT22;12498;50.880;12.096;2023-09-19T00:13:42;17.50;99.90
24374;DHT22;12498;50.880;12.096;2023-09-19T00:16:09;17.50;99.90
24374;DHT22;12498;50.880;12.096;2023-09-19T00:21:01;17.50;99.90
24374;DHT22;12498;50.880;12.096;2023-09-19T00:25:59;17.40;99.90
24374;DHT22;12498;50.880;12.096;2023-09-19T00:28:25;17.40;99.90
24374;DHT22;12498;50.880;12.096;2023-09-19T00:30:51;17.30;99.90
24374;DHT22;12498;50.880;12.096;2023-09-19T00:33:17;17.30;99.90
24374;DHT22;12498;50.880;12.096;2023-09-19T00:35:50;17.30;99.90
24374;DHT22;12498;50.880;12.096;2023-09-19T00:38:16;17.30;99.90
24374;DHT22;12498;50.880;12.096;2023-09-19T00:40:44;17.30;99.90
24374;DHT22;12498;50.880;12.096;2023-09-19T00:45:35;17.20;99.90
24374;DHT22;12498;50.880;12.096;2023-09-19T00:48:01;17.20;99.90
24374;DHT22;12498;50.880;12.096;2023-09-19T00:52:55;17.20;99.90
24374;DHT22;12498;50.880;12.096;2023-09-19T00:55:24;17.10;99.90
24374;DHT22;12498;50.880;12.096;2023-09-19T00:57:50;17.10;99.90
24374;DHT22;12498;50.880;12.096;2023-09-19T01:00:15;17.10;99.90
24374;DHT22;12498;50.880;12.096;2023-09-19T01:02:41;17.10;99.90
24374;DHT22;12498;50.880;12.096;2023-09-19T01:05:08;17.10;99.90
24374;DHT22;12498;50.880;12.096;2023-09-19T01:07:35;17.10;99.90
24374;DHT22;12498;50.880;12.096;2023-09-19T01:10:04;17.00;99.90
24374;DHT22;12498;50.880;12.096;2023-09-19T01:17:57;17.00;99.90
24374;DHT22;12498;50.880;12.096;2023-09-19T01:23:39;16.90;99.90
24374;DHT22;12498;50.880;12.096;2023-09-19T01:26:07;16.90;99.90
24374;DHT22;12498;50.880;12.096;2023-09-19T01:31:20;16.90;99.90
24374;DHT22;12498;50.880;12.096;2023-09-19T01:36:12;16.80;99.90
24374;DHT22;12498;50.880;12.096;2023-09-19T01:38:37;16.90;99.90
24374;DHT22;12498;50.880;12.096;2023-09-19T01:41:06;16.90;99.90
24374;DHT22;12498;50.880;12.096;2023-09-19T01:43:36;16.80;99.90
24374;DHT22;12498;50.880;12.096;2023-09-19T01:56:16;16.80;99.90
24374;DHT22;12498;50.880;12.096;2023-09-19T01:58:46;16.70;99.90
24374;DHT22;12498;50.880;12.096;2023-09-19T02:01:12;16.80;99.90
24374;DHT22;12498;50.880;12.096;2023-09-19T02:03:40;16.70;99.90
24374;DHT22;12498;50.880;12.096;2023-09-19T02:06:06;16.70;99.90
24374;DHT22;12498;50.880;12.096;2023-09-19T02:08:36;16.80;99.90
24374;DHT22;12498;50.880;12.096;2023-09-19T02:11:02;16.70;99.90
24374;DHT22;12498;50.880;12.096;2023-09-19T02:13:28;16.70;99.90
24374;DHT22;12498;50.880;12.096;2023-09-19T02:15:54;16.80;99.90
24374;DHT22;12498;50.880;12.096;2023-09-19T02:18:19;16.70;99.90
24374;DHT22;12498;50.880;12.096;2023-09-19T02:20:45;16.70;99.90
24374;DHT22;12498;50.880;12.096;2023-09-19T02:23:11;16.80;99.90
24374;DHT22;12498;50.880;12.096;2023-09-19T02:28:05;16.70;99.90
24374;DHT22;12498;50.880;12.096;2023-09-19T02:30:31;16.70;99.90
24374;DHT22;12498;50.880;12.096;2023-09-19T02:32:57;16.70;99.90
24374;DHT22;12498;50.880;12.096;2023-09-19T02:35:22;16.70;99.90
24374;DHT22;12498;50.880;12.096;2023-09-19T02:37:48;16.70;99.90
24374;DHT22;12498;50.880;12.096;2023-09-19T02:40:14;16.70;99.90
24374;DHT22;12498;50.880;12.096;2023-09-19T02:42:54;16.70;99.90
24374;DHT22;12498;50.880;12.096;2023-09-19T02:45:20;16.60;99.90
24374;DHT22;12498;50.880;12.096;2023-09-19T02:47:46;16.60;99.90
24374;DHT22;12498;50.880;12.096;2023-09-19T02:50:12;16.60;99.90
24374;DHT22;12498;50.880;12.096;2023-09-19T02:52:38;16.60;99.90
24374;DHT22;12498;50.880;12.096;2023-09-19T02:55:08;16.60;99.90
24374;DHT22;12498;50.880;12.096;2023-09-19T02:57:35;16.60;99.90
24374;DHT22;12498;50.880;12.096;2023-09-19T03:00:00;16.60;99.90
24374;DHT22;12498;50.880;12.096;2023-09-19T03:02:26;16.50;99.90
24374;DHT22;12498;50.880;12.096;2023-09-19T03:04:53;16.50;99.90
24374;DHT22;12498;50.880;12.096;2023-09-19T03:09:44;16.60;99.90
24374;DHT22;12498;50.880;12.096;2023-09-19T03:12:10;16.60;99.90
24374;DHT22;12498;50.880;12.096;2023-09-19T03:14:36;16.60;99.90
24374;DHT22;12498;50.880;12.096;2023-09-19T03:17:01;16.60;99.90
24374;DHT22;12498;50.880;12.096;2023-09-19T03:19:30;16.50;99.90
24374;DHT22;12498;50.880;12.096;2023-09-19T03:21:56;16.50;99.90
24374;DHT22;12498;50.880;12.096;2023-09-19T03:26:48;16.50;99.90
24374;DHT22;12498;50.880;12.096;2023-09-19T03:29:14;16.50;99.90
24374;DHT22;12498;50.880;12.096;2023-09-19T03:31:41;16.50;99.90
24374;DHT22;12498;50.880;12.096;2023-09-19T03:34:06;16.40;99.90
24374;DHT22;12498;50.880;12.096;2023-09-19T03:38:59;16.40;99.90
24374;DHT22;12498;50.880;12.096;2023-09-19T03:43:51;16.40;99.90
24374;DHT22;12498;50.880;12.096;2023-09-19T03:46:16;16.40;99.90
24374;DHT22;12498;50.880;12.096;2023-09-19T03:51:08;16.40;99.90
24374;DHT22;12498;50.880;12.096;2023-09-19T03:53:33;16.40;99.90
24374;DHT22;12498;50.880;12.096;2023-09-19T03:55:59;16.40;99.90
24374;DHT22;12498;50.880;12.096;2023-09-19T03:58:25;16.40;99.90
24374;DHT22;12498;50.880;12.096;2023-09-19T04:00:54;16.40;99.90
24374;DHT22;12498;50.880;12.096;2023-09-19T04:03:20;16.40;99.90
24374;DHT22;12498;50.880;12.096;2023-09-19T04:05:46;16.50;99.90
24374;DHT22;12498;50.880;12.096;2023-09-19T04:08:13;16.40;99.90
24374;DHT22;12498;50.880;12.096;2023-09-19T04:10:41;16.40;99.90
24374;DHT22;12498;50.880;12.096;2023-09-19T04:13:06;16.30;99.90
24374;DHT22;12498;50.880;12.096;2023-09-19T04:15:33;16.30;99.90
24374;DHT22;12498;50.880;12.096;2023-09-19T04:17:58;16.30;99.90
24374;DHT22;12498;50.880;12.096;2023-09-19T04:22:49;16.30;99.90
24374;DHT22;12498;50.880;12.096;2023-09-19T04:25:15;16.30;99.90
24374;DHT22;12498;50.880;12.096;2023-09-19T04:32:37;16.30;99.90
24374;DHT22;12498;50.880;12.096;2023-09-19T04:35:05;16.30;99.90
24374;DHT22;12498;50.880;12.096;2023-09-19T04:37:35;16.50;99.90
24374;DHT22;12498;50.880;12.096;2023-09-19T04:40:01;16.50;99.90
24374;DHT22;12498;50.880;12.096;2023-09-19T04:42:26;16.50;99.90
24374;DHT22;12498;50.880;12.096;2023-09-19T04:44:52;16.50;99.90
24374;DHT22;12498;50.880;12.096;2023-09-19T04:47:18;16.50;99.90
24374;DHT22;12498;50.880;12.096;2023-09-19T04:49:44;16.50;99.90
24374;DHT22;12498;50.880;12.096;2023-09-19T04:54:35;16.60;99.90
24374;DHT22;12498;50.880;12.096;2023-09-19T04:57:00;16.70;99.90
24374;DHT22;12498;50.880;12.096;2023-09-19T04:59:26;16.70;99.90
24374;DHT22;12498;50.880;12.096;2023-09-19T05:01:53;16.70;99.90
24374;DHT22;12498;50.880;12.096;2023-09-19T05:04:19;16.80;99.90
24374;DHT22;12498;50.880;12.096;2023-09-19T05:06:44;16.90;99.90
24374;DHT22;12498;50.880;12.096;2023-09-19T05:09:10;16.90;99.90
24374;DHT22;12498;50.880;12.096;2023-09-19T05:11:35;16.80;99.90
24374;DHT22;12498;50.880;12.096;2023-09-19T05:14:03;16.80;99.90
24374;DHT22;12498;50.880;12.096;2023-09-19T05:16:29;16.60;99.90
24374;DHT22;12498;50.880;12.096;2023-09-19T05:18:57;16.60;99.90
24374;DHT22;12498;50.880;12.096;2023-09-19T05:21:23;16.60;99.90
24374;DHT22;12498;50.880;12.096;2023-09-19T05:23:51;16.50;99.90
24374;DHT22;12498;50.880;12.096;2023-09-19T05:26:17;16.60;99.90
24374;DHT22;12498;50.880;12.096;2023-09-19T05:31:09;16.50;99.90
24374;DHT22;12498;50.880;12.096;2023-09-19T05:33:34;16.40;99.90
24374;DHT22;12498;50.880;12.096;2023-09-19T05:36:00;16.40;99.90
24374;DHT22;12498;50.880;12.096;2023-09-19T05:38:25;16.40;99.90
24374;DHT22;12498;50.880;12.096;2023-09-19T05:40:52;16.30;99.90
24374;DHT22;12498;50.880;12.096;2023-09-19T05:43:18;16.40;99.90
24374;DHT22;12498;50.880;12.096;2023-09-19T05:45:44;16.40;99.90
24374;DHT22;12498;50.880;12.096;2023-09-19T05:48:11;16.40;99.90
24374;DHT22;12498;50.880;12.096;2023-09-19T05:50:39;16.40;99.90
24374;DHT22;12498;50.880;12.096;2023-09-19T05:53:05;16.40;99.90
24374;DHT22;12498;50.880;12.096;2023-09-19T05:57:56;16.50;99.90
24374;DHT22;12498;50.880;12.096;2023-09-19T06:00:22;16.50;99.90
24374;DHT22;12498;50.880;12.096;2023-09-19T06:02:55;16.60;99.90
24374;DHT22;12498;50.880;12.096;2023-09-19T06:05:21;16.70;99.90
24374;DHT22;12498;50.880;12.096;2023-09-19T06:07:47;16.70;99.90
24374;DHT22;12498;50.880;12.096;2023-09-19T06:10:12;16.70;99.90
24374;DHT22;12498;50.880;12.096;2023-09-19T06:12:38;16.70;99.90
24374;DHT22;12498;50.880;12.096;2023-09-19T06:15:04;16.80;99.90
24374;DHT22;12498;50.880;12.096;2023-09-19T06:20:06;16.90;99.90
24374;DHT22;12498;50.880;12.096;2023-09-19T06:22:38;17.00;99.90
24374;DHT22;12498;50.880;12.096;2023-09-19T06:25:03;17.10;99.90
24374;DHT22;12498;50.880;12.096;2023-09-19T06:27:29;17.20;99.90
24374;DHT22;12498;50.880;12.096;2023-09-19T06:32:26;17.30;99.90
24374;DHT22;12498;50.880;12.096;2023-09-19T06:34:52;17.40;99.90
24374;DHT22;12498;50.880;12.096;2023-09-19T06:37:19;17.50;99.90
24374;DHT22;12498;50.880;12.096;2023-09-19T06:39:46;17.60;99.90
24374;DHT22;12498;50.880;12.096;2023-09-19T06:42:13;17.70;99.90
24374;DHT22;12498;50.880;12.096;2023-09-19T06:44:38;17.70;99.90
24374;DHT22;12498;50.880;12.096;2023-09-19T06:49:31;17.70;99.90
24374;DHT22;12498;50.880;12.096;2023-09-19T06:51:56;17.80;99.90
24374;DHT22;12498;50.880;12.096;2023-09-19T06:54:22;17.80;99.90
24374;DHT22;12498;50.880;12.096;2023-09-19T06:56:48;17.90;99.90
24374;DHT22;12498;50.880;12.096;2023-09-19T06:59:13;18.00;99.90
24374;DHT22;12498;50.880;12.096;2023-09-19T07:01:39;18.20;99.90
24374;DHT22;12498;50.880;12.096;2023-09-19T07:04:05;18.20;99.90
24374;DHT22;12498;50.880;12.096;2023-09-19T07:06:30;18.30;99.90
24374;DHT22;12498;50.880;12.096;2023-09-19T07:08:56;18.50;99.90
24374;DHT22;12498;50.880;12.096;2023-09-19T07:11:21;18.60;99.90
24374;DHT22;12498;50.880;12.096;2023-09-19T07:13:47;18.60;99.90
24374;DHT22;12498;50.880;12.096;2023-09-19T07:16:13;18.60;99.90
24374;DHT22;12498;50.880;12.096;2023-09-19T07:18:52;18.60;99.90
24374;DHT22;12498;50.880;12.096;2023-09-19T07:21:18;18.60;99.90
24374;DHT22;12498;50.880;12.096;2023-09-19T07:23:43;18.60;99.90
24374;DHT22;12498;50.880;12.096;2023-09-19T07:26:09;18.50;99.90
24374;DHT22;12498;50.880;12.096;2023-09-19T07:28:34;18.50;99.90
24374;DHT22;12498;50.880;12.096;2023-09-19T07:33:28;18.40;99.90
24374;DHT22;12498;50.880;12.096;2023-09-19T07:35:54;18.40;99.90
24374;DHT22;12498;50.880;12.096;2023-09-19T07:38:20;18.50;99.90
24374;DHT22;12498;50.880;12.096;2023-09-19T07:40:46;18.40;99.90
24374;DHT22;12498;50.880;12.096;2023-09-19T07:43:12;18.50;99.90
24374;DHT22;12498;50.880;12.096;2023-09-19T07:45:37;18.60;99.90
24374;DHT22;12498;50.880;12.096;2023-09-19T07:48:03;18.70;99.90
24374;DHT22;12498;50.880;12.096;2023-09-19T07:50:29;18.70;99.90
24374;DHT22;12498;50.880;12.096;2023-09-19T07:55:21;18.90;99.90
24374;DHT22;12498;50.880;12.096;2023-09-19T07:57:54;19.00;99.90
24374;DHT22;12498;50.880;12.096;2023-09-19T08:00:19;18.90;99.90
24374;DHT22;12498;50.880;12.096;2023-09-19T08:05:11;19.20;99.90
24374;DHT22;12498;50.880;12.096;2023-09-19T08:07:37;19.20;99.90
24374;DHT22;12498;50.880;12.096;2023-09-19T08:10:03;19.10;99.90
24374;DHT22;12498;50.880;12.096;2023-09-19T08:12:29;19.20;99.90
24374;DHT22;12498;50.880;12.096;2023-09-19T08:14:55;19.30;99.90
24374;DHT22;12498;50.880;12.096;2023-09-19T08:19:48;19.30;99.90
24374;DHT22;12498;50.880;12.096;2023-09-19T08:22:14;19.40;99.90
24374;DHT22;12498;50.880;12.096;2023-09-19T08:24:42;19.30;99.90
24374;DHT22;12498;50.880;12.096;2023-09-19T08:27:08;19.40;99.90
24374;DHT22;12498;50.880;12.096;2023-09-19T08:32:01;19.50;99.90
24374;DHT22;12498;50.880;12.096;2023-09-19T08:34:26;19.60;99.90
24374;DHT22;12498;50.880;12.096;2023-09-19T08:36:53;19.70;99.90
24374;DHT22;12498;50.880;12.096;2023-09-19T08:39:22;19.70;99.90
24374;DHT22;12498;50.880;12.096;2023-09-19T08:41:47;19.80;99.90
24374;DHT22;12498;50.880;12.096;2023-09-19T08:46:41;19.70;99.90
24374;DHT22;12498;50.880;12.096;2023-09-19T08:54:07;19.80;99.90
24374;DHT22;12498;50.880;12.096;2023-09-19T08:56:33;19.90;99.90
24374;DHT22;12498;50.880;12.096;2023-09-19T08:59:05;19.90;99.90
24374;DHT22;12498;50.880;12.096;2023-09-19T09:01:33;20.00;99.90
24374;DHT22;12498;50.880;12.096;2023-09-19T09:03:59;20.00;99.90
24374;DHT22;12498;50.880;12.096;2023-09-19T09:06:25;20.10;99.90
24374;DHT22;12498;50.880;12.096;2023-09-19T09:08:51;20.10;99.90
24374;DHT22;12498;50.880;12.096;2023-09-19T09:11:17;20.30;99.90
24374;DHT22;12498;50.880;12.096;2023-09-19T09:13:43;20.30;99.90
24374;DHT22;12498;50.880;12.096;2023-09-19T09:16:10;20.20;99.90
24374;DHT22;12498;50.880;12.096;2023-09-19T09:21:01;20.30;99.90
24374;DHT22;12498;50.880;12.096;2023-09-19T09:23:27;20.30;99.90
24374;DHT22;12498;50.880;12.096;2023-09-19T09:25:55;20.40;99.90
24374;DHT22;12498;50.880;12.096;2023-09-19T09:28:32;20.40;99.90
24374;DHT22;12498;50.880;12.096;2023-09-19T09:30:58;20.40;99.90
24374;DHT22;12498;50.880;12.096;2023-09-19T09:33:24;20.40;99.90
24374;DHT22;12498;50.880;12.096;2023-09-19T09:35:56;20.40;99.90
24374;DHT22;12498;50.880;12.096;2023-09-19T09:38:24;20.50;99.90
24374;DHT22;12498;50.880;12.096;2023-09-19T09:40:53;20.80;99.90
24374;DHT22;12498;50.880;12.096;2023-09-19T09:43:37;20.60;99.90
24374;DHT22;12498;50.880;12.096;2023-09-19T09:46:14;20.60;99.90
24374;DHT22;12498;50.880;12.096;2023-09-19T09:51:38;20.30;99.90
24374;DHT22;12498;50.880;12.096;2023-09-19T09:54:13;20.20;99.90
24374;DHT22;12498;50.880;12.096;2023-09-19T09:59:18;19.90;99.90
24374;DHT22;12498;50.880;12.096;2023-09-19T10:01:47;20.00;99.90
24374;DHT22;12498;50.880;12.096;2023-09-19T10:04:33;20.10;99.90
24374;DHT22;12498;50.880;12.096;2023-09-19T10:07:01;20.20;99.90
24374;DHT22;12498;50.880;12.096;2023-09-19T10:09:31;20.30;99.90
24374;DHT22;12498;50.880;12.096;2023-09-19T10:12:09;20.40;99.90
24374;DHT22;12498;50.880;12.096;2023-09-19T10:14:37;20.50;99.90
24374;DHT22;12498;50.880;12.096;2023-09-19T10:17:04;20.60;99.90
24374;DHT22;12498;50.880;12.096;2023-09-19T10:19:32;20.50;99.90
24374;DHT22;12498;50.880;12.096;2023-09-19T10:21:59;20.40;99.90
24374;DHT22;12498;50.880;12.096;2023-09-19T10:24:26;20.60;99.90
24374;DHT22;12498;50.880;12.096;2023-09-19T10:26:53;20.70;99.90
24374;DHT22;12498;50.880;12.096;2023-09-19T10:29:20;20.90;99.90
24374;DHT22;12498;50.880;12.096;2023-09-19T10:31:47;20.90;99.90
24374;DHT22;12498;50.880;12.096;2023-09-19T10:34:15;21.10;99.90
24374;DHT22;12498;50.880;12.096;2023-09-19T10:36:45;21.30;99.90
24374;DHT22;12498;50.880;12.096;2023-09-19T10:39:14;21.40;99.90
24374;DHT22;12498;50.880;12.096;2023-09-19T10:41:43;21.60;99.90
24374;DHT22;12498;50.880;12.096;2023-09-19T10:44:12;21.80;99.90
24374;DHT22;12498;50.880;12.096;2023-09-19T10:46:39;21.90;99.90
24374;DHT22;12498;50.880;12.096;2023-09-19T10:49:05;22.50;99.90
24374;DHT22;12498;50.880;12.096;2023-09-19T10:51:31;23.70;99.90
24374;DHT22;12498;50.880;12.096;2023-09-19T10:54:05;24.60;98.30
24374;DHT22;12498;50.880;12.096;2023-09-19T10:59:14;23.40;97.30
24374;DHT22;12498;50.880;12.096;2023-09-19T11:04:20;21.90;98.70
24374;DHT22;12498;50.880;12.096;2023-09-19T11:06:58;21.70;99.70
24374;DHT22;12498;50.880;12.096;2023-09-19T11:09:24;21.60;99.00
24374;DHT22;12498;50.880;12.096;2023-09-19T11:11:51;22.10;98.40
24374;DHT22;12498;50.880;12.096;2023-09-19T11:22:14;24.90;92.10
24374;DHT22;12498;50.880;12.096;2023-09-19T11:24:39;25.30;88.60
24374;DHT22;12498;50.880;12.096;2023-09-19T11:27:14;26.30;85.90
24374;DHT22;12498;50.880;12.096;2023-09-19T11:29:42;26.50;81.70
24374;DHT22;12498;50.880;12.096;2023-09-19T11:32:07;27.20;79.50
24374;DHT22;12498;50.880;12.096;2023-09-19T11:34:44;27.90;76.00
24374;DHT22;12498;50.880;12.096;2023-09-19T11:39:40;25.80;76.70
24374;DHT22;12498;50.880;12.096;2023-09-19T11:44:52;24.00;82.30
24374;DHT22;12498;50.880;12.096;2023-09-19T11:47:21;23.30;85.40
24374;DHT22;12498;50.880;12.096;2023-09-19T11:49:47;22.90;84.60
24374;DHT22;12498;50.880;12.096;2023-09-19T11:52:16;22.70;85.30
24374;DHT22;12498;50.880;12.096;2023-09-19T11:54:47;22.30;86.00
24374;DHT22;12498;50.880;12.096;2023-09-19T11:57:20;22.20;86.60
24374;DHT22;12498;50.880;12.096;2023-09-19T11:59:46;22.30;88.00
24374;DHT22;12498;50.880;12.096;2023-09-19T12:02:14;22.50;90.00
24374;DHT22;12498;50.880;12.096;2023-09-19T12:04:44;22.60;88.80
24374;DHT22;12498;50.880;12.096;2023-09-19T12:07:16;22.60;90.00
24374;DHT22;12498;50.880;12.096;2023-09-19T12:09:42;22.40;87.60
24374;DHT22;12498;50.880;12.096;2023-09-19T12:12:12;22.60;87.00
24374;DHT22;12498;50.880;12.096;2023-09-19T12:14:47;22.60;88.60
24374;DHT22;12498;50.880;12.096;2023-09-19T12:17:13;22.40;88.60
24374;DHT22;12498;50.880;12.096;2023-09-19T12:19:40;22.00;88.60
24374;DHT22;12498;50.880;12.096;2023-09-19T12:22:08;22.20;90.60
24374;DHT22;12498;50.880;12.096;2023-09-19T12:24:34;22.60;89.70
24374;DHT22;12498;50.880;12.096;2023-09-19T12:27:04;22.50;88.80
24374;DHT22;12498;50.880;12.096;2023-09-19T12:29:31;22.50;89.00
24374;DHT22;12498;50.880;12.096;2023-09-19T12:31:57;22.60;88.60
24374;DHT22;12498;50.880;12.096;2023-09-19T12:34:23;22.70;89.00
24374;DHT22;12498;50.880;12.096;2023-09-19T12:37:02;22.70;89.10
24374;DHT22;12498;50.880;12.096;2023-09-19T12:39:30;22.80;88.90
24374;DHT22;12498;50.880;12.096;2023-09-19T12:41:56;22.70;88.60
24374;DHT22;12498;50.880;12.096;2023-09-19T12:44:22;22.60;87.00
24374;DHT22;12498;50.880;12.096;2023-09-19T12:46:50;22.40;87.00
24374;DHT22;12498;50.880;12.096;2023-09-19T12:49:16;22.50;86.70
24374;DHT22;12498;50.880;12.096;2023-09-19T12:51:48;22.40;86.30
24374;DHT22;12498;50.880;12.096;2023-09-19T12:54:13;22.40;86.50
24374;DHT22;12498;50.880;12.096;2023-09-19T12:56:43;22.40;86.50
24374;DHT22;12498;50.880;12.096;2023-09-19T12:59:14;22.50;85.40
24374;DHT22;12498;50.880;12.096;2023-09-19T13:01:42;22.50;85.80
24374;DHT22;12498;50.880;12.096;2023-09-19T13:06:51;22.90;84.50
24374;DHT22;12498;50.880;12.096;2023-09-19T13:09:20;23.10;84.20
24374;DHT22;12498;50.880;12.096;2023-09-19T13:11:46;23.30;84.20
24374;DHT22;12498;50.880;12.096;2023-09-19T13:19:35;24.10;80.10
24374;DHT22;12498;50.880;12.096;2023-09-19T13:22:00;26.40;74.60
24374;DHT22;12498;50.880;12.096;2023-09-19T13:26:52;27.90;66.00
24374;DHT22;12498;50.880;12.096;2023-09-19T13:29:17;27.80;66.50
24374;DHT22;12498;50.880;12.096;2023-09-19T13:31:47;27.60;65.80
24374;DHT22;12498;50.880;12.096;2023-09-19T13:34:13;28.80;62.00
24374;DHT22;12498;50.880;12.096;2023-09-19T13:36:41;30.40;58.90
24374;DHT22;12498;50.880;12.096;2023-09-19T13:39:07;30.70;57.20
24374;DHT22;12498;50.880;12.096;2023-09-19T13:41:34;31.40;54.30
24374;DHT22;12498;50.880;12.096;2023-09-19T13:44:02;31.30;52.60
24374;DHT22;12498;50.880;12.096;2023-09-19T13:46:28;31.00;51.60
24374;DHT22;12498;50.880;12.096;2023-09-19T13:48:53;30.70;50.80
24374;DHT22;12498;50.880;12.096;2023-09-19T13:51:23;30.70;51.50
24374;DHT22;12498;50.880;12.096;2023-09-19T13:53:49;30.60;51.50
24374;DHT22;12498;50.880;12.096;2023-09-19T13:56:15;29.40;51.70
24374;DHT22;12498;50.880;12.096;2023-09-19T13:58:41;28.80;54.10
24374;DHT22;12498;50.880;12.096;2023-09-19T14:01:07;29.00;53.90
24374;DHT22;12498;50.880;12.096;2023-09-19T14:03:37;25.50;51.60
24374;DHT22;12498;50.880;12.096;2023-09-19T14:06:03;28.10;55.00
24374;DHT22;12498;50.880;12.096;2023-09-19T14:08:29;27.20;56.80
24374;DHT22;12498;50.880;12.096;2023-09-19T14:10:54;27.20;55.30
24374;DHT22;12498;50.880;12.096;2023-09-19T14:13:20;26.80;55.30
24374;DHT22;12498;50.880;12.096;2023-09-19T14:15:46;27.40;57.00
24374;DHT22;12498;50.880;12.096;2023-09-19T14:18:11;28.00;55.40
24374;DHT22;12498;50.880;12.096;2023-09-19T14:20:38;28.30;55.40
24374;DHT22;12498;50.880;12.096;2023-09-19T14:23:04;28.80;53.00
24374;DHT22;12498;50.880;12.096;2023-09-19T14:25:30;29.40;52.90
24374;DHT22;12498;50.880;12.096;2023-09-19T14:27:55;29.60;52.60
24374;DHT22;12498;50.880;12.096;2023-09-19T14:30:21;28.90;52.90
24374;DHT22;12498;50.880;12.096;2023-09-19T14:32:47;28.30;54.10
24374;DHT22;12498;50.880;12.096;2023-09-19T14:35:12;28.50;54.10
24374;DHT22;12498;50.880;12.096;2023-09-19T14:37:39;29.10;53.60
24374;DHT22;12498;50.880;12.096;2023-09-19T14:40:05;29.60;52.80
24374;DHT22;12498;50.880;12.096;2023-09-19T14:42:38;29.50;52.00
24374;DHT22;12498;50.880;12.096;2023-09-19T14:45:04;29.50;51.80
24374;DHT22;12498;50.880;12.096;2023-09-19T14:47:30;28.90;50.40
24374;DHT22;12498;50.880;12.096;2023-09-19T14:49:57;28.30;52.00
24374;DHT22;12498;50.880;12.096;2023-09-19T14:52:23;27.60;52.40
24374;DHT22;12498;50.880;12.096;2023-09-19T14:54:51;27.20;52.90
24374;DHT22;12498;50.880;12.096;2023-09-19T14:57:16;26.70;54.50
24374;DHT22;12498;50.880;12.096;2023-09-19T14:59:42;26.10;55.90
24374;DHT22;12498;50.880;12.096;2023-09-19T15:02:07;25.70;56.90
24374;DHT22;12498;50.880;12.096;2023-09-19T15:04:33;25.30;56.10
24374;DHT22;12498;50.880;12.096;2023-09-19T15:06:59;25.20;57.80
24374;DHT22;12498;50.880;12.096;2023-09-19T15:09:25;25.20;58.30
24374;DHT22;12498;50.880;12.096;2023-09-19T15:11:52;25.10;57.70
24374;DHT22;12498;50.880;12.096;2023-09-19T15:14:17;24.80;59.10
24374;DHT22;12498;50.880;12.096;2023-09-19T15:16:43;24.40;59.10
24374;DHT22;12498;50.880;12.096;2023-09-19T15:19:09;24.30;60.30
24374;DHT22;12498;50.880;12.096;2023-09-19T15:21:35;24.20;60.90
24374;DHT22;12498;50.880;12.096;2023-09-19T15:24:01;24.10;60.00
24374;DHT22;12498;50.880;12.096;2023-09-19T15:26:26;24.10;61.50
24374;DHT22;12498;50.880;12.096;2023-09-19T15:28:52;24.10;59.70
24374;DHT22;12498;50.880;12.096;2023-09-19T15:31:19;23.90;59.60
24374;DHT22;12498;50.880;12.096;2023-09-19T15:33:45;23.70;58.90
24374;DHT22;12498;50.880;12.096;2023-09-19T15:36:11;23.70;58.90
24374;DHT22;12498;50.880;12.096;2023-09-19T15:41:22;23.20;58.70
24374;DHT22;12498;50.880;12.096;2023-09-19T15:43:47;23.20;59.70
24374;DHT22;12498;50.880;12.096;2023-09-19T15:46:13;23.10;59.10
24374;DHT22;12498;50.880;12.096;2023-09-19T15:48:42;23.30;59.70
24374;DHT22;12498;50.880;12.096;2023-09-19T15:51:08;23.20;59.70
24374;DHT22;12498;50.880;12.096;2023-09-19T15:53:44;23.10;59.50
24374;DHT22;12498;50.880;12.096;2023-09-19T15:56:12;23.00;59.80
24374;DHT22;12498;50.880;12.096;2023-09-19T15:58:41;23.10;60.90
24374;DHT22;12498;50.880;12.096;2023-09-19T16:01:07;23.00;60.50
24374;DHT22;12498;50.880;12.096;2023-09-19T16:03:37;22.90;61.20
24374;DHT22;12498;50.880;12.096;2023-09-19T16:06:09;22.90;60.90
24374;DHT22;12498;50.880;12.096;2023-09-19T16:08:43;22.80;60.60
24374;DHT22;12498;50.880;12.096;2023-09-19T16:11:08;22.50;61.10
24374;DHT22;12498;50.880;12.096;2023-09-19T16:13:34;22.30;61.00
24374;DHT22;12498;50.880;12.096;2023-09-19T16:16:00;22.20;62.70
24374;DHT22;12498;50.880;12.096;2023-09-19T16:18:25;22.20;63.50
24374;DHT22;12498;50.880;12.096;2023-09-19T16:20:53;21.90;63.90
24374;DHT22;12498;50.880;12.096;2023-09-19T16:23:18;21.70;65.90
24374;DHT22;12498;50.880;12.096;2023-09-19T16:25:45;21.40;63.00
24374;DHT22;12498;50.880;12.096;2023-09-19T16:28:12;21.40;64.50
24374;DHT22;12498;50.880;12.096;2023-09-19T16:30:38;21.30;65.60
24374;DHT22;12498;50.880;12.096;2023-09-19T16:33:04;21.20;64.00
24374;DHT22;12498;50.880;12.096;2023-09-19T16:35:29;21.20;64.20
24374;DHT22;12498;50.880;12.096;2023-09-19T16:37:55;21.20;65.70
24374;DHT22;12498;50.880;12.096;2023-09-19T16:40:20;21.20;65.80
24374;DHT22;12498;50.880;12.096;2023-09-19T16:42:46;20.90;64.50
24374;DHT22;12498;50.880;12.096;2023-09-19T16:45:11;20.70;64.10
24374;DHT22;12498;50.880;12.096;2023-09-19T16:47:37;20.60;64.70
24374;DHT22;12498;50.880;12.096;2023-09-19T16:50:03;20.40;65.10
24374;DHT22;12498;50.880;12.096;2023-09-19T16:52:29;20.40;66.30
24374;DHT22;12498;50.880;12.096;2023-09-19T16:54:55;20.30;66.80
24374;DHT22;12498;50.880;12.096;2023-09-19T16:57:20;20.10;67.20
24374;DHT22;12498;50.880;12.096;2023-09-19T16:59:47;19.90;65.70
24374;DHT22;12498;50.880;12.096;2023-09-19T17:02:14;19.90;67.00
24374;DHT22;12498;50.880;12.096;2023-09-19T17:04:40;19.70;66.20
24374;DHT22;12498;50.880;12.096;2023-09-19T17:07:07;19.60;66.30
24374;DHT22;12498;50.880;12.096;2023-09-19T17:09:32;19.50;68.10
24374;DHT22;12498;50.880;12.096;2023-09-19T17:11:58;19.40;67.30
24374;DHT22;12498;50.880;12.096;2023-09-19T17:14:23;19.30;68.20
24374;DHT22;12498;50.880;12.096;2023-09-19T17:16:49;19.20;67.70
24374;DHT22;12498;50.880;12.096;2023-09-19T17:19:14;19.20;69.50
24374;DHT22;12498;50.880;12.096;2023-09-19T17:21:40;19.00;68.40
24374;DHT22;12498;50.880;12.096;2023-09-19T17:24:05;19.00;70.30